sensor_id;sensor_type;location;lat;lon;timestamp;P1;durP1;ratioP1;P2;durP2;ratioP2
64994;SDS011;51543;52.254;10.512;2022-07-12T00:02:00;3.90;;;2.40;;
64994;SDS011;51543;52.254;10.512;2022-07-12T00:04:29;3.35;;;2.25;;
64994;SDS011;51543;52.254;10.512;2022-07-12T00:06:54;2.50;;;2.30;;
64994;SDS011;51543;52.254;10.512;2022-07-12T00:09:19;4.70;;;2.60;;
64994;SDS011;51543;52.254;10.512;2022-07-12T00:11:45;2.53;;;2.33;;
64994;SDS011;51543;52.254;10.512;2022-07-12T00:14:10;3.42;;;2.42;;
64994;SDS011;51543;52.254;10.512;2022-07-12T00:16:35;2.60;;;2.40;;
64994;SDS011;51543;52.254;10.512;2022-07-12T00:19:01;3.05;;;2.60;;
64994;SDS011;51543;52.254;10.512;2022-07-12T00:21:26;3.08;;;2.50;;
64994;SDS011;51543;52.254;10.512;2022-07-12T00:23:51;2.95;;;2.40;;
64994;SDS011;51543;52.254;10.512;2022-07-12T00:26:17;3.05;;;2.50;;
64994;SDS011;51543;52.254;10.512;2022-07-12T00:28:42;4.85;;;2.42;;
64994;SDS011;51543;52.254;10.512;2022-07-12T00:31:08;3.28;;;2.38;;
64994;SDS011;51543;52.254;10.512;2022-07-12T00:33:33;2.75;;;2.55;;
64994;SDS011;51543;52.254;10.512;2022-07-12T00:35:58;2.80;;;2.58;;
64994;SDS011;51543;52.254;10.512;2022-07-12T00:38:23;5.65;;;2.90;;
64994;SDS011;51543;52.254;10.512;2022-07-12T00:40:49;3.30;;;2.50;;
64994;SDS011;51543;52.254;10.512;2022-07-12T00:43:14;2.80;;;2.60;;
64994;SDS011;51543;52.254;10.512;2022-07-12T00:45:39;3.72;;;2.60;;
64994;SDS011;51543;52.254;10.512;2022-07-12T00:48:05;2.72;;;2.53;;
64994;SDS011;51543;52.254;10.512;2022-07-12T00:50:31;4.82;;;3.00;;
64994;SDS011;51543;52.254;10.512;2022-07-12T00:52:56;3.63;;;2.70;;
64994;SDS011;51543;52.254;10.512;2022-07-12T00:55:23;2.63;;;2.42;;
64994;SDS011;51543;52.254;10.512;2022-07-12T00:57:49;5.40;;;3.00;;
64994;SDS011;51543;52.254;10.512;2022-07-12T01:00:21;5.20;;;2.83;;
64994;SDS011;51543;52.254;10.512;2022-07-12T01:02:47;2.47;;;2.20;;
64994;SDS011;51543;52.254;10.512;2022-07-12T01:05:13;3.47;;;2.72;;
64994;SDS011;51543;52.254;10.512;2022-07-12T01:07:38;3.20;;;2.90;;
64994;SDS011;51543;52.254;10.512;2022-07-12T01:10:04;2.10;;;1.95;;
64994;SDS011;51543;52.254;10.512;2022-07-12T01:12:30;4.20;;;3.15;;
64994;SDS011;51543;52.254;10.512;2022-07-12T01:14:55;3.28;;;2.75;;
64994;SDS011;51543;52.254;10.512;2022-07-12T01:17:21;3.38;;;2.75;;
64994;SDS011;51543;52.254;10.512;2022-07-12T01:19:47;3.45;;;2.70;;
64994;SDS011;51543;52.254;10.512;2022-07-12T01:22:14;4.43;;;2.80;;
64994;SDS011;51543;52.254;10.512;2022-07-12T01:24:40;3.60;;;2.90;;
64994;SDS011;51543;52.254;10.512;2022-07-12T01:27:05;3.08;;;2.78;;
64994;SDS011;51543;52.254;10.512;2022-07-12T01:29:31;3.53;;;3.00;;
64994;SDS011;51543;52.254;10.512;2022-07-12T01:31:56;3.13;;;2.78;;
64994;SDS011;51543;52.254;10.512;2022-07-12T01:34:44;4.75;;;3.58;;
64994;SDS011;51543;52.254;10.512;2022-07-12T01:37:15;3.97;;;2.40;;
64994;SDS011;51543;52.254;10.512;2022-07-12T01:39:42;3.90;;;3.20;;
64994;SDS011;51543;52.254;10.512;2022-07-12T01:42:07;4.28;;;3.40;;
64994;SDS011;51543;52.254;10.512;2022-07-12T01:44:33;6.10;;;3.65;;
64994;SDS011;51543;52.254;10.512;2022-07-12T01:46:58;4.57;;;3.95;;
64994;SDS011;51543;52.254;10.512;2022-07-12T01:49:23;5.63;;;3.80;;
64994;SDS011;51543;52.254;10.512;2022-07-12T01:51:50;6.38;;;3.90;;
64994;SDS011;51543;52.254;10.512;2022-07-12T01:54:15;5.10;;;3.72;;
64994;SDS011;51543;52.254;10.512;2022-07-12T01:56:41;4.57;;;3.72;;
64994;SDS011;51543;52.254;10.512;2022-07-12T01:59:06;5.07;;;4.40;;
64994;SDS011;51543;52.254;10.512;2022-07-12T02:01:32;6.35;;;4.32;;
64994;SDS011;51543;52.254;10.512;2022-07-12T02:04:00;6.05;;;4.35;;
64994;SDS011;51543;52.254;10.512;2022-07-12T02:06:26;6.57;;;4.18;;
64994;SDS011;51543;52.254;10.512;2022-07-12T02:08:52;7.30;;;5.03;;
64994;SDS011;51543;52.254;10.512;2022-07-12T02:11:17;6.63;;;4.75;;
64994;SDS011;51543;52.254;10.512;2022-07-12T02:13:42;5.00;;;4.20;;
64994;SDS011;51543;52.254;10.512;2022-07-12T02:16:08;4.95;;;3.92;;
64994;SDS011;51543;52.254;10.512;2022-07-12T02:18:33;7.75;;;4.50;;
64994;SDS011;51543;52.254;10.512;2022-07-12T02:20:58;5.88;;;4.72;;
64994;SDS011;51543;52.254;10.512;2022-07-12T02:23:25;6.50;;;5.38;;
64994;SDS011;51543;52.254;10.512;2022-07-12T02:25:50;7.15;;;5.00;;
64994;SDS011;51543;52.254;10.512;2022-07-12T02:28:16;6.55;;;5.07;;
64994;SDS011;51543;52.254;10.512;2022-07-12T02:30:41;10.52;;;5.60;;
64994;SDS011;51543;52.254;10.512;2022-07-12T02:33:06;7.47;;;5.55;;
64994;SDS011;51543;52.254;10.512;2022-07-12T02:35:32;8.98;;;5.20;;
64994;SDS011;51543;52.254;10.512;2022-07-12T02:37:57;7.90;;;5.03;;
64994;SDS011;51543;52.254;10.512;2022-07-12T02:40:22;7.22;;;5.07;;
64994;SDS011;51543;52.254;10.512;2022-07-12T02:43:06;6.47;;;5.18;;
64994;SDS011;51543;52.254;10.512;2022-07-12T02:45:31;8.00;;;5.38;;
64994;SDS011;51543;52.254;10.512;2022-07-12T02:47:57;7.07;;;5.55;;
64994;SDS011;51543;52.254;10.512;2022-07-12T02:50:22;9.70;;;5.70;;
64994;SDS011;51543;52.254;10.512;2022-07-12T02:52:47;7.63;;;5.40;;
64994;SDS011;51543;52.254;10.512;2022-07-12T02:55:13;11.20;;;6.55;;
64994;SDS011;51543;52.254;10.512;2022-07-12T02:57:38;9.65;;;6.30;;
64994;SDS011;51543;52.254;10.512;2022-07-12T03:00:03;13.88;;;6.15;;
64994;SDS011;51543;52.254;10.512;2022-07-12T03:02:30;9.15;;;6.15;;
64994;SDS011;51543;52.254;10.512;2022-07-12T03:04:57;8.90;;;6.20;;
64994;SDS011;51543;52.254;10.512;2022-07-12T03:07:22;9.02;;;6.05;;
64994;SDS011;51543;52.254;10.512;2022-07-12T03:09:47;11.07;;;6.22;;
64994;SDS011;51543;52.254;10.512;2022-07-12T03:12:13;9.55;;;6.32;;
64994;SDS011;51543;52.254;10.512;2022-07-12T03:14:38;8.65;;;5.88;;
64994;SDS011;51543;52.254;10.512;2022-07-12T03:17:03;8.57;;;6.20;;
64994;SDS011;51543;52.254;10.512;2022-07-12T03:19:29;10.90;;;6.10;;
64994;SDS011;51543;52.254;10.512;2022-07-12T03:21:54;8.05;;;5.95;;
64994;SDS011;51543;52.254;10.512;2022-07-12T03:24:19;8.90;;;6.20;;
64994;SDS011;51543;52.254;10.512;2022-07-12T03:26:44;7.88;;;5.90;;
64994;SDS011;51543;52.254;10.512;2022-07-12T03:29:10;8.80;;;5.65;;
64994;SDS011;51543;52.254;10.512;2022-07-12T03:31:36;9.85;;;5.95;;
64994;SDS011;51543;52.254;10.512;2022-07-12T03:34:01;11.00;;;6.35;;
64994;SDS011;51543;52.254;10.512;2022-07-12T03:36:27;9.63;;;6.03;;
64994;SDS011;51543;52.254;10.512;2022-07-12T03:38:52;11.63;;;5.63;;
64994;SDS011;51543;52.254;10.512;2022-07-12T03:41:18;10.75;;;5.68;;
64994;SDS011;51543;52.254;10.512;2022-07-12T03:43:43;10.63;;;5.13;;
64994;SDS011;51543;52.254;10.512;2022-07-12T03:46:11;7.10;;;5.47;;
64994;SDS011;51543;52.254;10.512;2022-07-12T03:48:36;13.23;;;5.35;;
64994;SDS011;51543;52.254;10.512;2022-07-12T03:51:02;8.25;;;5.00;;
64994;SDS011;51543;52.254;10.512;2022-07-12T03:53:27;8.48;;;4.97;;
64994;SDS011;51543;52.254;10.512;2022-07-12T03:55:52;8.45;;;5.20;;
64994;SDS011;51543;52.254;10.512;2022-07-12T03:58:17;6.75;;;4.90;;
64994;SDS011;51543;52.254;10.512;2022-07-12T04:00:43;6.80;;;5.18;;
64994;SDS011;51543;52.254;10.512;2022-07-12T04:03:09;6.60;;;4.95;;
64994;SDS011;51543;52.254;10.512;2022-07-12T04:05:35;7.35;;;5.15;;
64994;SDS011;51543;52.254;10.512;2022-07-12T04:08:00;6.43;;;5.32;;
64994;SDS011;51543;52.254;10.512;2022-07-12T04:10:27;6.00;;;5.15;;
64994;SDS011;51543;52.254;10.512;2022-07-12T04:12:52;13.27;;;5.50;;
64994;SDS011;51543;52.254;10.512;2022-07-12T04:15:17;4.75;;;3.67;;
64994;SDS011;51543;52.254;10.512;2022-07-12T04:17:43;7.88;;;6.15;;
64994;SDS011;51543;52.254;10.512;2022-07-12T04:20:08;7.95;;;5.07;;
64994;SDS011;51543;52.254;10.512;2022-07-12T04:22:35;7.75;;;5.90;;
64994;SDS011;51543;52.254;10.512;2022-07-12T04:25:00;9.52;;;6.38;;
64994;SDS011;51543;52.254;10.512;2022-07-12T04:27:25;10.18;;;6.25;;
64994;SDS011;51543;52.254;10.512;2022-07-12T04:29:53;10.88;;;6.18;;
64994;SDS011;51543;52.254;10.512;2022-07-12T04:32:18;8.48;;;6.55;;
64994;SDS011;51543;52.254;10.512;2022-07-12T04:34:44;9.27;;;6.03;;
64994;SDS011;51543;52.254;10.512;2022-07-12T04:37:09;8.20;;;5.70;;
64994;SDS011;51543;52.254;10.512;2022-07-12T04:39:34;7.25;;;5.60;;
64994;SDS011;51543;52.254;10.512;2022-07-12T04:42:00;6.95;;;5.30;;
64994;SDS011;51543;52.254;10.512;2022-07-12T04:44:28;5.72;;;4.45;;
64994;SDS011;51543;52.254;10.512;2022-07-12T04:46:53;8.52;;;5.47;;
64994;SDS011;51543;52.254;10.512;2022-07-12T04:49:18;7.47;;;5.97;;
64994;SDS011;51543;52.254;10.512;2022-07-12T04:51:44;5.93;;;4.75;;
64994;SDS011;51543;52.254;10.512;2022-07-12T04:54:10;8.02;;;5.90;;
64994;SDS011;51543;52.254;10.512;2022-07-12T04:56:35;7.45;;;5.70;;
64994;SDS011;51543;52.254;10.512;2022-07-12T04:59:00;7.00;;;4.97;;
64994;SDS011;51543;52.254;10.512;2022-07-12T05:01:25;7.85;;;6.68;;
64994;SDS011;51543;52.254;10.512;2022-07-12T05:03:51;7.70;;;6.35;;
64994;SDS011;51543;52.254;10.512;2022-07-12T05:06:16;6.60;;;4.35;;
64994;SDS011;51543;52.254;10.512;2022-07-12T05:08:41;7.45;;;6.40;;
64994;SDS011;51543;52.254;10.512;2022-07-12T05:11:06;7.63;;;5.88;;
64994;SDS011;51543;52.254;10.512;2022-07-12T05:13:32;7.82;;;6.50;;
64994;SDS011;51543;52.254;10.512;2022-07-12T05:15:57;6.78;;;5.72;;
64994;SDS011;51543;52.254;10.512;2022-07-12T05:18:22;7.43;;;5.70;;
64994;SDS011;51543;52.254;10.512;2022-07-12T05:20:48;9.00;;;5.72;;
64994;SDS011;51543;52.254;10.512;2022-07-12T05:23:13;4.18;;;3.53;;
64994;SDS011;51543;52.254;10.512;2022-07-12T05:25:39;5.88;;;4.93;;
64994;SDS011;51543;52.254;10.512;2022-07-12T05:28:04;4.85;;;4.25;;
64994;SDS011;51543;52.254;10.512;2022-07-12T05:30:29;3.88;;;2.72;;
64994;SDS011;51543;52.254;10.512;2022-07-12T05:32:55;7.53;;;5.50;;
64994;SDS011;51543;52.254;10.512;2022-07-12T05:35:20;6.97;;;5.38;;
64994;SDS011;51543;52.254;10.512;2022-07-12T05:37:45;3.65;;;2.58;;
64994;SDS011;51543;52.254;10.512;2022-07-12T05:40:10;6.72;;;4.60;;
64994;SDS011;51543;52.254;10.512;2022-07-12T05:42:36;2.95;;;2.60;;
64994;SDS011;51543;52.254;10.512;2022-07-12T05:45:01;4.07;;;3.30;;
64994;SDS011;51543;52.254;10.512;2022-07-12T05:47:27;10.95;;;5.43;;
64994;SDS011;51543;52.254;10.512;2022-07-12T05:49:53;9.27;;;5.53;;
64994;SDS011;51543;52.254;10.512;2022-07-12T05:52:18;2.50;;;2.22;;
64994;SDS011;51543;52.254;10.512;2022-07-12T05:55:02;5.30;;;4.75;;
64994;SDS011;51543;52.254;10.512;2022-07-12T05:57:27;7.35;;;4.35;;
64994;SDS011;51543;52.254;10.512;2022-07-12T05:59:53;5.55;;;4.07;;
64994;SDS011;51543;52.254;10.512;2022-07-12T06:02:18;3.38;;;3.08;;
64994;SDS011;51543;52.254;10.512;2022-07-12T06:04:43;4.45;;;3.47;;
64994;SDS011;51543;52.254;10.512;2022-07-12T06:07:08;5.32;;;4.00;;
64994;SDS011;51543;52.254;10.512;2022-07-12T06:09:34;6.15;;;4.40;;
64994;SDS011;51543;52.254;10.512;2022-07-12T06:11:59;5.63;;;3.35;;
64994;SDS011;51543;52.254;10.512;2022-07-12T06:14:25;2.60;;;2.20;;
64994;SDS011;51543;52.254;10.512;2022-07-12T06:16:50;6.60;;;4.00;;
64994;SDS011;51543;52.254;10.512;2022-07-12T06:19:15;5.40;;;3.65;;
64994;SDS011;51543;52.254;10.512;2022-07-12T06:21:40;6.20;;;3.28;;
64994;SDS011;51543;52.254;10.512;2022-07-12T06:24:06;3.75;;;3.15;;
64994;SDS011;51543;52.254;10.512;2022-07-12T06:26:31;3.63;;;3.13;;
64994;SDS011;51543;52.254;10.512;2022-07-12T06:28:56;3.70;;;3.35;;
64994;SDS011;51543;52.254;10.512;2022-07-12T06:31:21;3.08;;;2.78;;
64994;SDS011;51543;52.254;10.512;2022-07-12T06:33:48;2.35;;;2.08;;
64994;SDS011;51543;52.254;10.512;2022-07-12T06:36:14;2.80;;;2.10;;
64994;SDS011;51543;52.254;10.512;2022-07-12T06:38:39;1.95;;;1.80;;
64994;SDS011;51543;52.254;10.512;2022-07-12T06:41:04;2.13;;;1.80;;
64994;SDS011;51543;52.254;10.512;2022-07-12T06:43:29;2.10;;;1.90;;
64994;SDS011;51543;52.254;10.512;2022-07-12T06:45:55;0.90;;;0.90;;
64994;SDS011;51543;52.254;10.512;2022-07-12T06:48:20;1.70;;;1.60;;
64994;SDS011;51543;52.254;10.512;2022-07-12T06:50:45;1.55;;;1.45;;
64994;SDS011;51543;52.254;10.512;2022-07-12T06:53:11;1.60;;;1.50;;
64994;SDS011;51543;52.254;10.512;2022-07-12T06:55:36;1.50;;;1.40;;
64994;SDS011;51543;52.254;10.512;2022-07-12T06:58:02;3.17;;;1.88;;
64994;SDS011;51543;52.254;10.512;2022-07-12T07:00:27;2.00;;;1.50;;
64994;SDS011;51543;52.254;10.512;2022-07-12T07:02:53;2.03;;;1.90;;
64994;SDS011;51543;52.254;10.512;2022-07-12T07:05:18;1.63;;;1.52;;
64994;SDS011;51543;52.254;10.512;2022-07-12T07:07:44;1.70;;;1.60;;
64994;SDS011;51543;52.254;10.512;2022-07-12T07:10:09;1.90;;;1.80;;
64994;SDS011;51543;52.254;10.512;2022-07-12T07:12:34;1.90;;;1.67;;
64994;SDS011;51543;52.254;10.512;2022-07-12T07:14:59;2.03;;;1.92;;
64994;SDS011;51543;52.254;10.512;2022-07-12T07:17:25;2.88;;;1.80;;
64994;SDS011;51543;52.254;10.512;2022-07-12T07:19:50;1.55;;;1.45;;
64994;SDS011;51543;52.254;10.512;2022-07-12T07:22:15;1.95;;;1.70;;
64994;SDS011;51543;52.254;10.512;2022-07-12T07:24:40;3.42;;;1.83;;
64994;SDS011;51543;52.254;10.512;2022-07-12T07:27:06;1.90;;;1.80;;
64994;SDS011;51543;52.254;10.512;2022-07-12T07:29:31;3.25;;;2.00;;
64994;SDS011;51543;52.254;10.512;2022-07-12T07:32:15;1.85;;;1.60;;
64994;SDS011;51543;52.254;10.512;2022-07-12T07:34:41;3.22;;;1.60;;
64994;SDS011;51543;52.254;10.512;2022-07-12T07:37:07;1.88;;;1.77;;
64994;SDS011;51543;52.254;10.512;2022-07-12T07:39:38;1.98;;;1.80;;
64994;SDS011;51543;52.254;10.512;2022-07-12T07:42:03;1.60;;;1.50;;
64994;SDS011;51543;52.254;10.512;2022-07-12T07:44:29;2.05;;;1.70;;
64994;SDS011;51543;52.254;10.512;2022-07-12T07:46:55;2.30;;;1.80;;
64994;SDS011;51543;52.254;10.512;2022-07-12T07:49:21;2.33;;;1.63;;
64994;SDS011;51543;52.254;10.512;2022-07-12T07:51:46;2.28;;;1.80;;
64994;SDS011;51543;52.254;10.512;2022-07-12T07:54:11;5.30;;;1.73;;
64994;SDS011;51543;52.254;10.512;2022-07-12T07:56:36;2.10;;;1.80;;
64994;SDS011;51543;52.254;10.512;2022-07-12T07:59:02;2.65;;;2.10;;
64994;SDS011;51543;52.254;10.512;2022-07-12T08:01:27;3.88;;;3.55;;
64994;SDS011;51543;52.254;10.512;2022-07-12T08:04:19;2.20;;;1.73;;
64994;SDS011;51543;52.254;10.512;2022-07-12T08:06:44;11.30;;;1.60;;
64994;SDS011;51543;52.254;10.512;2022-07-12T08:09:10;1.67;;;1.58;;
64994;SDS011;51543;52.254;10.512;2022-07-12T08:11:36;2.80;;;1.75;;
64994;SDS011;51543;52.254;10.512;2022-07-12T08:14:02;3.78;;;1.92;;
64994;SDS011;51543;52.254;10.512;2022-07-12T08:16:27;3.95;;;1.80;;
64994;SDS011;51543;52.254;10.512;2022-07-12T08:18:53;1.23;;;1.20;;
64994;SDS011;51543;52.254;10.512;2022-07-12T08:21:18;1.80;;;1.70;;
64994;SDS011;51543;52.254;10.512;2022-07-12T08:23:43;2.38;;;1.90;;
64994;SDS011;51543;52.254;10.512;2022-07-12T08:26:09;2.55;;;2.30;;
64994;SDS011;51543;52.254;10.512;2022-07-12T08:28:34;3.03;;;1.90;;
64994;SDS011;51543;52.254;10.512;2022-07-12T08:30:59;1.88;;;1.48;;
64994;SDS011;51543;52.254;10.512;2022-07-12T08:33:25;2.53;;;2.20;;
64994;SDS011;51543;52.254;10.512;2022-07-12T08:35:50;2.40;;;2.20;;
64994;SDS011;51543;52.254;10.512;2022-07-12T08:38:17;3.10;;;2.90;;
64994;SDS011;51543;52.254;10.512;2022-07-12T08:40:43;4.95;;;3.20;;
64994;SDS011;51543;52.254;10.512;2022-07-12T08:43:08;3.80;;;3.50;;
64994;SDS011;51543;52.254;10.512;2022-07-12T08:45:36;3.80;;;3.22;;
64994;SDS011;51543;52.254;10.512;2022-07-12T08:48:01;4.63;;;3.20;;
64994;SDS011;51543;52.254;10.512;2022-07-12T08:50:27;4.72;;;3.35;;
64994;SDS011;51543;52.254;10.512;2022-07-12T08:52:53;3.70;;;3.40;;
64994;SDS011;51543;52.254;10.512;2022-07-12T08:57:47;4.05;;;3.63;;
64994;SDS011;51543;52.254;10.512;2022-07-12T09:00:12;4.40;;;3.30;;
64994;SDS011;51543;52.254;10.512;2022-07-12T09:02:48;3.50;;;3.17;;
64994;SDS011;51543;52.254;10.512;2022-07-12T09:05:14;2.60;;;2.40;;
64994;SDS011;51543;52.254;10.512;2022-07-12T09:07:39;2.10;;;1.90;;
64994;SDS011;51543;52.254;10.512;2022-07-12T09:10:05;3.72;;;3.38;;
64994;SDS011;51543;52.254;10.512;2022-07-12T09:12:32;4.00;;;3.30;;
64994;SDS011;51543;52.254;10.512;2022-07-12T09:17:41;7.00;;;3.88;;
64994;SDS011;51543;52.254;10.512;2022-07-12T09:20:11;2.63;;;2.42;;
64994;SDS011;51543;52.254;10.512;2022-07-12T09:22:36;2.78;;;2.50;;
64994;SDS011;51543;52.254;10.512;2022-07-12T09:25:08;4.25;;;3.35;;
64994;SDS011;51543;52.254;10.512;2022-07-12T09:27:33;3.40;;;3.10;;
64994;SDS011;51543;52.254;10.512;2022-07-12T09:29:59;3.45;;;3.10;;
64994;SDS011;51543;52.254;10.512;2022-07-12T09:32:25;9.57;;;3.22;;
64994;SDS011;51543;52.254;10.512;2022-07-12T09:35:09;5.07;;;3.30;;
64994;SDS011;51543;52.254;10.512;2022-07-12T09:37:53;3.60;;;3.30;;
64994;SDS011;51543;52.254;10.512;2022-07-12T09:40:19;3.10;;;2.90;;
64994;SDS011;51543;52.254;10.512;2022-07-12T09:42:45;3.70;;;3.35;;
64994;SDS011;51543;52.254;10.512;2022-07-12T09:45:10;3.40;;;2.63;;
64994;SDS011;51543;52.254;10.512;2022-07-12T09:47:37;2.67;;;2.47;;
64994;SDS011;51543;52.254;10.512;2022-07-12T09:50:03;3.95;;;2.90;;
64994;SDS011;51543;52.254;10.512;2022-07-12T09:52:28;4.10;;;2.67;;
64994;SDS011;51543;52.254;10.512;2022-07-12T09:54:55;2.10;;;1.95;;
64994;SDS011;51543;52.254;10.512;2022-07-12T09:57:25;2.33;;;2.00;;
64994;SDS011;51543;52.254;10.512;2022-07-12T09:59:51;2.83;;;2.38;;
64994;SDS011;51543;52.254;10.512;2022-07-12T10:02:17;4.20;;;2.50;;
64994;SDS011;51543;52.254;10.512;2022-07-12T10:04:43;1.88;;;1.77;;
64994;SDS011;51543;52.254;10.512;2022-07-12T10:07:08;2.25;;;2.00;;
64994;SDS011;51543;52.254;10.512;2022-07-12T10:09:38;2.33;;;2.13;;
64994;SDS011;51543;52.254;10.512;2022-07-12T10:12:03;3.47;;;1.70;;
64994;SDS011;51543;52.254;10.512;2022-07-12T10:14:29;2.20;;;2.00;;
64994;SDS011;51543;52.254;10.512;2022-07-12T10:16:54;2.13;;;1.70;;
64994;SDS011;51543;52.254;10.512;2022-07-12T10:21:49;2.13;;;1.92;;
64994;SDS011;51543;52.254;10.512;2022-07-12T10:24:57;2.20;;;2.10;;
64994;SDS011;51543;52.254;10.512;2022-07-12T10:29:47;2.17;;;1.98;;
64994;SDS011;51543;52.254;10.512;2022-07-12T10:34:58;3.42;;;2.00;;
64994;SDS011;51543;52.254;10.512;2022-07-12T10:37:23;1.98;;;1.83;;
64994;SDS011;51543;52.254;10.512;2022-07-12T10:42:33;2.60;;;1.90;;
64994;SDS011;51543;52.254;10.512;2022-07-12T10:45:09;4.00;;;2.03;;
64994;SDS011;51543;52.254;10.512;2022-07-12T10:47:54;1.70;;;1.60;;
64994;SDS011;51543;52.254;10.512;2022-07-12T10:50:37;1.80;;;1.65;;
64994;SDS011;51543;52.254;10.512;2022-07-12T10:56:06;1.33;;;1.10;;
64994;SDS011;51543;52.254;10.512;2022-07-12T11:01:01;2.83;;;1.60;;
64994;SDS011;51543;52.254;10.512;2022-07-12T11:03:46;1.83;;;1.60;;
64994;SDS011;51543;52.254;10.512;2022-07-12T11:06:13;1.48;;;1.38;;
64994;SDS011;51543;52.254;10.512;2022-07-12T11:08:48;1.88;;;1.77;;
64994;SDS011;51543;52.254;10.512;2022-07-12T11:11:13;2.13;;;1.95;;
64994;SDS011;51543;52.254;10.512;2022-07-12T11:13:39;3.35;;;1.85;;
64994;SDS011;51543;52.254;10.512;2022-07-12T11:16:04;4.28;;;2.10;;
64994;SDS011;51543;52.254;10.512;2022-07-12T11:18:30;1.58;;;1.48;;
64994;SDS011;51543;52.254;10.512;2022-07-12T11:20:59;2.08;;;1.20;;
64994;SDS011;51543;52.254;10.512;2022-07-12T11:23:25;1.77;;;1.67;;
64994;SDS011;51543;52.254;10.512;2022-07-12T11:25:54;4.85;;;1.75;;
64994;SDS011;51543;52.254;10.512;2022-07-12T11:28:19;1.65;;;1.55;;
64994;SDS011;51543;52.254;10.512;2022-07-12T11:30:48;1.55;;;1.45;;
64994;SDS011;51543;52.254;10.512;2022-07-12T11:33:14;6.43;;;1.73;;
64994;SDS011;51543;52.254;10.512;2022-07-12T11:35:39;1.73;;;1.52;;
64994;SDS011;51543;52.254;10.512;2022-07-12T11:38:08;2.08;;;1.85;;
64994;SDS011;51543;52.254;10.512;2022-07-12T11:40:33;2.67;;;1.60;;
64994;SDS011;51543;52.254;10.512;2022-07-12T11:42:59;1.85;;;1.70;;
64994;SDS011;51543;52.254;10.512;2022-07-12T11:45:29;2.13;;;1.60;;
64994;SDS011;51543;52.254;10.512;2022-07-12T11:47:55;2.95;;;1.90;;
64994;SDS011;51543;52.254;10.512;2022-07-12T11:50:21;1.42;;;1.30;;
64994;SDS011;51543;52.254;10.512;2022-07-12T11:52:46;1.70;;;1.60;;
64994;SDS011;51543;52.254;10.512;2022-07-12T11:55:12;2.30;;;1.67;;
64994;SDS011;51543;52.254;10.512;2022-07-12T11:57:38;2.97;;;1.92;;
64994;SDS011;51543;52.254;10.512;2022-07-12T12:02:58;1.65;;;1.40;;
64994;SDS011;51543;52.254;10.512;2022-07-12T12:05:23;3.53;;;1.70;;
64994;SDS011;51543;52.254;10.512;2022-07-12T12:07:48;1.42;;;1.30;;
64994;SDS011;51543;52.254;10.512;2022-07-12T12:10:14;1.60;;;1.50;;
64994;SDS011;51543;52.254;10.512;2022-07-12T12:12:43;1.88;;;1.70;;
64994;SDS011;51543;52.254;10.512;2022-07-12T12:15:19;1.70;;;1.60;;
64994;SDS011;51543;52.254;10.512;2022-07-12T12:20:19;1.70;;;1.60;;
64994;SDS011;51543;52.254;10.512;2022-07-12T12:22:45;3.08;;;1.55;;
64994;SDS011;51543;52.254;10.512;2022-07-12T12:25:11;1.50;;;1.42;;
64994;SDS011;51543;52.254;10.512;2022-07-12T12:30:07;1.73;;;1.63;;
64994;SDS011;51543;52.254;10.512;2022-07-12T12:32:46;1.70;;;1.60;;
64994;SDS011;51543;52.254;10.512;2022-07-12T12:35:12;2.45;;;1.60;;
64994;SDS011;51543;52.254;10.512;2022-07-12T12:37:37;3.70;;;1.70;;
64994;SDS011;51543;52.254;10.512;2022-07-12T12:40:03;1.25;;;1.15;;
64994;SDS011;51543;52.254;10.512;2022-07-12T12:42:29;1.20;;;1.13;;
64994;SDS011;51543;52.254;10.512;2022-07-12T12:44:55;1.70;;;1.60;;
64994;SDS011;51543;52.254;10.512;2022-07-12T12:47:20;1.75;;;1.65;;
64994;SDS011;51543;52.254;10.512;2022-07-12T12:49:59;2.20;;;1.98;;
64994;SDS011;51543;52.254;10.512;2022-07-12T12:52:28;1.40;;;1.30;;
64994;SDS011;51543;52.254;10.512;2022-07-12T12:54:54;2.03;;;1.90;;
64994;SDS011;51543;52.254;10.512;2022-07-12T12:57:19;2.08;;;1.90;;
64994;SDS011;51543;52.254;10.512;2022-07-12T12:59:45;1.33;;;1.30;;
64994;SDS011;51543;52.254;10.512;2022-07-12T13:02:10;1.70;;;1.60;;
64994;SDS011;51543;52.254;10.512;2022-07-12T13:04:37;1.58;;;1.40;;
64994;SDS011;51543;52.254;10.512;2022-07-12T13:07:02;1.73;;;1.63;;
64994;SDS011;51543;52.254;10.512;2022-07-12T13:09:28;1.80;;;1.70;;
64994;SDS011;51543;52.254;10.512;2022-07-12T13:11:54;1.70;;;1.60;;
64994;SDS011;51543;52.254;10.512;2022-07-12T13:14:21;1.58;;;1.35;;
64994;SDS011;51543;52.254;10.512;2022-07-12T13:16:46;1.20;;;1.10;;
64994;SDS011;51543;52.254;10.512;2022-07-12T13:19:11;1.70;;;1.60;;
64994;SDS011;51543;52.254;10.512;2022-07-12T13:21:37;1.90;;;1.70;;
64994;SDS011;51543;52.254;10.512;2022-07-12T13:24:02;2.63;;;2.03;;
64994;SDS011;51543;52.254;10.512;2022-07-12T13:26:28;1.95;;;1.85;;
64994;SDS011;51543;52.254;10.512;2022-07-12T13:28:53;4.45;;;1.90;;
64994;SDS011;51543;52.254;10.512;2022-07-12T13:31:19;1.52;;;1.42;;
64994;SDS011;51543;52.254;10.512;2022-07-12T13:33:44;3.17;;;2.20;;
64994;SDS011;51543;52.254;10.512;2022-07-12T13:36:09;5.15;;;2.00;;
64994;SDS011;51543;52.254;10.512;2022-07-12T13:38:35;2.58;;;2.38;;
64994;SDS011;51543;52.254;10.512;2022-07-12T13:41:00;2.33;;;2.13;;
64994;SDS011;51543;52.254;10.512;2022-07-12T13:43:25;4.20;;;2.00;;
64994;SDS011;51543;52.254;10.512;2022-07-12T13:45:51;2.00;;;1.90;;
64994;SDS011;51543;52.254;10.512;2022-07-12T13:48:16;1.85;;;1.75;;
64994;SDS011;51543;52.254;10.512;2022-07-12T13:50:43;2.20;;;2.10;;
64994;SDS011;51543;52.254;10.512;2022-07-12T13:53:08;2.92;;;2.20;;
64994;SDS011;51543;52.254;10.512;2022-07-12T13:55:34;2.47;;;2.10;;
64994;SDS011;51543;52.254;10.512;2022-07-12T13:57:59;2.50;;;2.30;;
64994;SDS011;51543;52.254;10.512;2022-07-12T14:00:24;2.03;;;1.92;;
64994;SDS011;51543;52.254;10.512;2022-07-12T14:02:50;1.70;;;1.60;;
64994;SDS011;51543;52.254;10.512;2022-07-12T14:05:15;1.95;;;1.85;;
64994;SDS011;51543;52.254;10.512;2022-07-12T14:07:45;3.35;;;2.22;;
64994;SDS011;51543;52.254;10.512;2022-07-12T14:10:11;2.50;;;2.30;;
64994;SDS011;51543;52.254;10.512;2022-07-12T14:12:37;4.70;;;2.00;;
64994;SDS011;51543;52.254;10.512;2022-07-12T14:15:02;2.58;;;2.38;;
64994;SDS011;51543;52.254;10.512;2022-07-12T14:17:37;2.40;;;2.20;;
64994;SDS011;51543;52.254;10.512;2022-07-12T14:20:03;2.08;;;1.98;;
64994;SDS011;51543;52.254;10.512;2022-07-12T14:22:28;3.90;;;2.47;;
64994;SDS011;51543;52.254;10.512;2022-07-12T14:24:54;2.33;;;1.73;;
64994;SDS011;51543;52.254;10.512;2022-07-12T14:27:20;1.95;;;1.73;;
64994;SDS011;51543;52.254;10.512;2022-07-12T14:29:45;2.40;;;1.70;;
64994;SDS011;51543;52.254;10.512;2022-07-12T14:32:10;1.10;;;1.05;;
64994;SDS011;51543;52.254;10.512;2022-07-12T14:34:35;2.53;;;1.80;;
64994;SDS011;51543;52.254;10.512;2022-07-12T14:37:01;2.55;;;1.58;;
64994;SDS011;51543;52.254;10.512;2022-07-12T14:39:27;2.03;;;1.85;;
64994;SDS011;51543;52.254;10.512;2022-07-12T14:41:52;1.77;;;1.45;;
64994;SDS011;51543;52.254;10.512;2022-07-12T14:44:17;1.25;;;1.23;;
64994;SDS011;51543;52.254;10.512;2022-07-12T14:46:44;1.55;;;1.45;;
64994;SDS011;51543;52.254;10.512;2022-07-12T14:49:09;1.65;;;1.50;;
64994;SDS011;51543;52.254;10.512;2022-07-12T14:51:35;2.97;;;1.70;;
64994;SDS011;51543;52.254;10.512;2022-07-12T14:54:00;1.50;;;1.40;;
64994;SDS011;51543;52.254;10.512;2022-07-12T14:56:25;1.83;;;1.55;;
64994;SDS011;51543;52.254;10.512;2022-07-12T14:58:51;2.60;;;1.70;;